Time;durP1;ratioP1;P1;durP2;ratioP2;P2;SDS_P1;SDS_P2;PMS_P1;PMS_P2;Temp;Humidity;BMP_temperature;BMP_pressure;BME280_temperature;BME280_humidity;BME280_pressure;Samples;Min_cycle;Max_cycle;Signal;HPM_P1;HPM_P2
2021/07/01 00:01:13;;;;;;;0.60;0.60;;;13.90;99.90;;;;;;1934933;73;21067;-79
2021/07/01 00:03:39;;;;;;;1.00;0.90;;;13.80;99.90;;;;;;1931358;73;21126;-80
2021/07/01 00:06:05;;;;;;;5.97;0.75;;;13.90;99.90;;;;;;1931690;74;21204;-80
2021/07/01 00:08:31;;;;;;;0.50;0.50;;;14.00;99.90;;;;;;1928988;74;21149;-80
2021/07/01 00:10:57;;;;;;;1.17;0.75;;;13.90;99.90;;;;;;1945563;73;21049;-80
2021/07/01 00:13:23;;;;;;;3.27;0.75;;;13.80;99.90;;;;;;1942052;72;21129;-79
2021/07/01 00:15:49;;;;;;;0.93;0.82;;;13.80;99.90;;;;;;1929056;74;21145;-80
2021/07/01 00:18:16;;;;;;;3.33;0.40;;;13.80;99.90;;;;;;1928911;74;21217;-79
2021/07/01 00:20:42;;;;;;;2.42;0.70;;;13.90;99.90;;;;;;1930944;74;21040;-79
2021/07/01 00:23:08;;;;;;;1.22;0.82;;;13.90;99.90;;;;;;1930569;74;21487;-78
2021/07/01 00:25:36;;;;;;;0.33;0.33;;;13.90;99.90;;;;;;1929014;74;21549;-79
2021/07/01 00:28:02;;;;;;;0.82;0.42;;;13.80;99.90;;;;;;1929831;74;21174;-78
2021/07/01 00:30:28;;;;;;;2.60;0.60;;;13.70;99.90;;;;;;1934692;74;21040;-79
2021/07/01 00:32:54;;;;;;;1.62;0.65;;;13.70;99.90;;;;;;1930948;73;21152;-80
2021/07/01 00:35:20;;;;;;;1.15;0.80;;;13.60;99.90;;;;;;1934130;74;21586;-80
2021/07/01 00:37:46;;;;;;;0.47;0.47;;;13.60;99.90;;;;;;1930958;73;21504;-80
2021/07/01 00:40:12;;;;;;;0.70;0.70;;;13.70;99.90;;;;;;1931348;74;21137;-80
2021/07/01 00:42:39;;;;;;;1.32;0.80;;;13.80;99.90;;;;;;1929013;74;21025;-81
2021/07/01 00:45:05;;;;;;;2.10;0.60;;;13.80;99.90;;;;;;1931593;74;21108;-80
2021/07/01 00:47:32;;;;;;;1.02;0.82;;;13.80;99.90;;;;;;1928937;74;21075;-80
2021/07/01 00:50:00;;;;;;;0.65;0.60;;;13.70;99.90;;;;;;1933258;74;21142;-79
2021/07/01 00:52:25;;;;;;;0.45;0.45;;;13.70;99.90;;;;;;1931311;74;21107;-80
2021/07/01 00:54:52;;;;;;;0.68;0.60;;;13.80;99.90;;;;;;1929113;74;21041;-79
2021/07/01 00:57:18;;;;;;;0.40;0.40;;;13.70;99.90;;;;;;1934495;73;21079;-80
2021/07/01 00:59:44;;;;;;;0.60;0.50;;;13.70;99.90;;;;;;1928973;74;21091;-79
2021/07/01 01:02:10;;;;;;;0.35;0.35;;;13.70;99.90;;;;;;1929088;74;21072;-80
2021/07/01 01:04:36;;;;;;;1.72;0.60;;;13.70;99.90;;;;;;1931117;74;21105;-80
2021/07/01 01:07:02;;;;;;;0.57;0.50;;;13.60;99.90;;;;;;1929101;74;21479;-80
2021/07/01 01:09:29;;;;;;;1.85;0.60;;;13.70;99.90;;;;;;1926569;73;21454;-79
2021/07/01 01:11:55;;;;;;;0.40;0.40;;;13.60;99.90;;;;;;1922237;73;21565;-79
2021/07/01 01:14:21;;;;;;;0.40;0.40;;;13.60;99.90;;;;;;1930709;73;21519;-79
2021/07/01 01:16:47;;;;;;;0.50;0.50;;;13.60;99.90;;;;;;1943556;73;21727;-80
2021/07/01 01:19:13;;;;;;;0.42;0.42;;;13.60;99.90;;;;;;1945569;73;21556;-80
2021/07/01 01:21:39;;;;;;;0.88;0.45;;;13.70;99.90;;;;;;1948779;73;21141;-80
2021/07/01 01:24:07;;;;;;;0.70;0.30;;;13.70;99.90;;;;;;1929380;74;21099;-80
2021/07/01 01:26:33;;;;;;;0.33;0.33;;;13.70;99.90;;;;;;1930288;74;21190;-80
2021/07/01 01:28:59;;;;;;;2.15;0.60;;;13.70;99.90;;;;;;1930820;74;21083;-83
2021/07/01 01:31:27;;;;;;;0.40;0.40;;;13.70;99.90;;;;;;1937106;72;21087;-80
2021/07/01 01:33:53;;;;;;;0.75;0.57;;;13.80;99.90;;;;;;1941491;73;21063;-79
2021/07/01 01:36:19;;;;;;;0.40;0.40;;;13.70;99.90;;;;;;1934790;74;21079;-79
2021/07/01 01:38:45;;;;;;;0.53;0.47;;;13.70;99.90;;;;;;1932303;74;21079;-79
2021/07/01 01:41:11;;;;;;;0.25;0.25;;;13.50;99.90;;;;;;1929060;74;21496;-80
2021/07/01 01:43:37;;;;;;;1.00;0.60;;;13.60;99.90;;;;;;1930727;74;21479;-79
2021/07/01 01:46:03;;;;;;;0.35;0.35;;;13.70;99.90;;;;;;1929446;74;21409;-80
2021/07/01 01:48:30;;;;;;;0.80;0.30;;;13.70;99.90;;;;;;1928851;74;21487;-79
2021/07/01 01:50:56;;;;;;;0.60;0.30;;;13.80;99.90;;;;;;1929040;74;21480;-79
2021/07/01 01:53:22;;;;;;;3.02;0.70;;;13.70;99.90;;;;;;1947842;73;21522;-80
2021/07/01 01:55:48;;;;;;;5.10;0.47;;;13.70;99.90;;;;;;1933279;73;21048;-79
2021/07/01 01:58:14;;;;;;;2.15;0.50;;;13.70;99.90;;;;;;1930862;74;21063;-79
2021/07/01 02:00:40;;;;;;;0.80;0.57;;;13.60;99.90;;;;;;1939519;73;21076;-80
2021/07/01 02:03:06;;;;;;;0.75;0.40;;;13.70;99.90;;;;;;1928832;74;21076;-79
2021/07/01 02:05:32;;;;;;;0.85;0.30;;;13.60;99.90;;;;;;1931149;74;21044;-79
2021/07/01 02:07:59;;;;;;;0.30;0.30;;;13.60;99.90;;;;;;1930989;74;21075;-79
2021/07/01 02:10:25;;;;;;;0.30;0.30;;;13.50;99.90;;;;;;1928961;74;21057;-79
2021/07/01 02:12:51;;;;;;;0.33;0.33;;;13.60;99.90;;;;;;1935642;74;21068;-79
2021/07/01 02:15:17;;;;;;;0.40;0.40;;;13.50;99.90;;;;;;1932255;73;21082;-79
2021/07/01 02:17:43;;;;;;;1.87;0.70;;;13.50;99.90;;;;;;1933173;73;21037;-79
2021/07/01 02:20:09;;;;;;;0.85;0.62;;;13.60;99.90;;;;;;1936375;72;21083;-79
2021/07/01 02:22:35;;;;;;;0.90;0.60;;;13.60;99.90;;;;;;1937909;73;21196;-79
2021/07/01 02:25:01;;;;;;;0.60;0.60;;;13.60;99.90;;;;;;1934407;73;21084;-79
2021/07/01 02:27:28;;;;;;;0.65;0.65;;;13.70;99.90;;;;;;1928902;74;21024;-79
2021/07/01 02:29:54;;;;;;;0.65;0.65;;;13.70;99.90;;;;;;1928974;74;21491;-79
2021/07/01 02:32:20;;;;;;;3.52;0.40;;;13.70;99.90;;;;;;1930222;73;21489;-79
2021/07/01 02:34:46;;;;;;;2.37;0.60;;;13.70;99.90;;;;;;1934865;73;21502;-79
2021/07/01 02:37:12;;;;;;;0.50;0.40;;;13.70;99.90;;;;;;1930200;74;21642;-79
2021/07/01 02:39:38;;;;;;;0.40;0.40;;;13.70;99.90;;;;;;1945042;73;21069;-79
2021/07/01 02:42:04;;;;;;;0.40;0.40;;;13.70;99.90;;;;;;1955751;73;21075;-79
2021/07/01 02:44:31;;;;;;;0.57;0.42;;;13.60;99.90;;;;;;1946063;72;21132;-79
2021/07/01 02:46:57;;;;;;;1.30;0.50;;;13.60;99.90;;;;;;1930708;73;21166;-79
2021/07/01 02:49:23;;;;;;;0.82;0.50;;;13.60;99.90;;;;;;1928840;74;21084;-79
2021/07/01 02:51:49;;;;;;;1.22;0.60;;;13.60;99.90;;;;;;1928996;74;21072;-79
2021/07/01 02:54:15;;;;;;;1.67;0.47;;;13.60;99.90;;;;;;1930342;74;21075;-79
2021/07/01 02:56:42;;;;;;;0.40;0.40;;;13.60;99.90;;;;;;1930942;74;21141;-79
2021/07/01 02:59:08;;;;;;;2.50;0.60;;;13.70;99.90;;;;;;1929023;74;21142;-78
2021/07/01 03:01:34;;;;;;;0.42;0.42;;;13.60;99.90;;;;;;1928880;74;21072;-79
2021/07/01 03:04:00;;;;;;;0.68;0.53;;;13.60;99.90;;;;;;1928874;74;21052;-79
2021/07/01 03:06:26;;;;;;;0.45;0.45;;;13.60;99.90;;;;;;1928977;74;21493;-79
2021/07/01 03:08:54;;;;;;;0.53;0.25;;;13.50;99.90;;;;;;1928930;74;21078;-79
2021/07/01 03:11:20;;;;;;;0.40;0.40;;;13.60;99.90;;;;;;1928854;74;21169;-79
2021/07/01 03:13:46;;;;;;;3.05;0.70;;;13.70;99.90;;;;;;1928904;74;21145;-79
2021/07/01 03:16:15;;;;;;;7.65;0.75;;;13.70;99.90;;;;;;1933806;74;21075;-79
2021/07/01 03:18:40;;;;;;;0.95;0.80;;;13.70;99.90;;;;;;1928673;74;21163;-79
2021/07/01 03:21:06;;;;;;;0.50;0.40;;;13.60;99.90;;;;;;1929366;74;21137;-79
2021/07/01 03:23:32;;;;;;;0.30;0.30;;;13.60;99.90;;;;;;1927947;74;21074;-79
2021/07/01 03:25:59;;;;;;;0.50;0.50;;;13.60;99.90;;;;;;1932222;73;21137;-79
2021/07/01 03:28:25;;;;;;;0.60;0.60;;;13.70;99.90;;;;;;1938527;73;21081;-79
2021/07/01 03:30:51;;;;;;;0.23;0.23;;;13.60;99.90;;;;;;1947120;73;21161;-79
2021/07/01 03:33:17;;;;;;;0.42;0.42;;;13.70;99.90;;;;;;1954785;73;21078;-79
2021/07/01 03:35:43;;;;;;;1.70;0.40;;;13.70;99.90;;;;;;1956786;73;21136;-79
2021/07/01 03:38:09;;;;;;;0.30;0.30;;;13.70;99.90;;;;;;1925793;73;21075;-79
2021/07/01 03:40:35;;;;;;;7.22;0.50;;;13.70;99.90;;;;;;1937593;73;21079;-81
2021/07/01 03:43:02;;;;;;;1.40;0.50;;;13.70;99.90;;;;;;1949138;73;21048;-81
2021/07/01 03:45:28;;;;;;;0.30;0.30;;;13.70;99.90;;;;;;1947803;72;21066;-80
2021/07/01 03:47:54;;;;;;;1.37;0.50;;;13.70;99.90;;;;;;1939049;73;21193;-80
2021/07/01 03:50:20;;;;;;;0.47;0.40;;;13.70;99.90;;;;;;1934797;73;21075;-80
2021/07/01 03:52:46;;;;;;;1.02;1.00;;;13.70;99.90;;;;;;1948358;73;21269;-80
2021/07/01 03:55:12;;;;;;;2.85;0.50;;;13.70;99.90;;;;;;1940352;73;21069;-80
2021/07/01 03:57:38;;;;;;;0.50;0.42;;;13.70;99.90;;;;;;1944734;73;21086;-80
2021/07/01 04:00:05;;;;;;;0.53;0.33;;;13.70;99.90;;;;;;1948162;72;21078;-80
2021/07/01 04:02:31;;;;;;;1.60;0.60;;;13.70;99.90;;;;;;1945772;72;21148;-80
2021/07/01 04:04:57;;;;;;;1.00;0.62;;;13.80;99.90;;;;;;1940540;73;21051;-80
2021/07/01 04:07:23;;;;;;;0.57;0.57;;;13.70;99.90;;;;;;1948968;73;21070;-80
2021/07/01 04:09:49;;;;;;;0.53;0.47;;;13.70;99.90;;;;;;1929182;73;21456;-80
2021/07/01 04:12:15;;;;;;;0.33;0.33;;;13.60;99.90;;;;;;1928999;74;21472;-80
2021/07/01 04:14:41;;;;;;;0.30;0.30;;;13.70;99.90;;;;;;1928868;74;21424;-80
2021/07/01 04:17:07;;;;;;;4.03;0.70;;;13.70;99.90;;;;;;1928472;74;21456;-81
2021/07/01 04:19:34;;;;;;;1.60;0.60;;;13.70;99.90;;;;;;1928612;74;21565;-80
2021/07/01 04:22:00;;;;;;;0.42;0.42;;;13.80;99.90;;;;;;1928753;74;21165;-80
2021/07/01 04:24:26;;;;;;;1.12;0.60;;;13.80;99.90;;;;;;1929113;74;21127;-80
2021/07/01 04:26:52;;;;;;;1.40;0.62;;;13.80;99.90;;;;;;1933288;74;21075;-81
2021/07/01 04:29:20;;;;;;;2.95;0.62;;;13.90;99.90;;;;;;1928992;74;21048;-80
2021/07/01 04:31:46;;;;;;;0.60;0.50;;;13.80;99.90;;;;;;1930343;74;21235;-80
2021/07/01 04:34:12;;;;;;;1.37;0.50;;;13.80;99.90;;;;;;1929872;74;21071;-80
2021/07/01 04:36:38;;;;;;;1.60;0.78;;;13.80;99.90;;;;;;1928857;74;21080;-81
2021/07/01 04:39:04;;;;;;;1.10;0.78;;;13.80;99.90;;;;;;1928906;74;21028;-81
2021/07/01 04:41:30;;;;;;;0.75;0.75;;;13.90;99.90;;;;;;1931004;74;21072;-80
2021/07/01 04:43:56;;;;;;;0.80;0.72;;;13.90;99.90;;;;;;1928914;74;21184;-81
2021/07/01 04:46:23;;;;;;;1.32;0.75;;;13.90;99.90;;;;;;1928946;74;21064;-80
2021/07/01 04:48:51;;;;;;;1.80;1.00;;;13.90;99.90;;;;;;1928653;74;21028;-80
2021/07/01 04:51:16;;;;;;;0.50;0.50;;;13.90;99.90;;;;;;1929304;73;21513;-79
2021/07/01 04:53:43;;;;;;;0.78;0.78;;;13.90;99.90;;;;;;1930542;73;21556;-80
2021/07/01 04:56:09;;;;;;;0.62;0.62;;;13.90;99.90;;;;;;1932532;73;21067;-80
2021/07/01 04:58:35;;;;;;;2.42;0.88;;;13.90;99.90;;;;;;1930818;73;21045;-81
2021/07/01 05:01:01;;;;;;;2.22;0.80;;;14.00;99.90;;;;;;1932924;73;22681;-79
2021/07/01 05:03:27;;;;;;;0.90;0.50;;;14.00;99.90;;;;;;1930306;73;21087;-81
2021/07/01 05:05:54;;;;;;;1.15;0.80;;;14.00;99.90;;;;;;1929144;74;21133;-81
2021/07/01 05:08:20;;;;;;;1.27;0.85;;;13.90;99.90;;;;;;1929052;74;21068;-80
2021/07/01 05:10:46;;;;;;;0.70;0.70;;;14.00;99.90;;;;;;1931232;74;21204;-80
2021/07/01 05:13:12;;;;;;;0.55;0.53;;;14.10;99.90;;;;;;1928929;74;21076;-80
2021/07/01 05:15:38;;;;;;;1.02;0.93;;;14.20;99.90;;;;;;1930924;74;21091;-78
2021/07/01 05:18:04;;;;;;;0.57;0.57;;;14.10;99.90;;;;;;1930533;74;21208;-79
2021/07/01 05:20:31;;;;;;;0.60;0.60;;;14.10;99.90;;;;;;1928905;74;21047;-79
2021/07/01 05:22:57;;;;;;;5.87;0.80;;;14.20;99.90;;;;;;1928804;74;21574;-80
2021/07/01 05:25:23;;;;;;;2.45;0.93;;;14.30;99.90;;;;;;1929384;74;21511;-78
2021/07/01 05:27:49;;;;;;;1.32;0.80;;;14.30;99.90;;;;;;1931067;74;21452;-77
2021/07/01 05:30:15;;;;;;;0.82;0.70;;;14.40;99.90;;;;;;1930448;73;21562;-79
2021/07/01 05:32:41;;;;;;;1.30;0.80;;;14.40;99.90;;;;;;1928934;74;21471;-78
2021/07/01 05:35:07;;;;;;;1.67;0.60;;;14.30;99.90;;;;;;1941329;73;21502;-79
2021/07/01 05:37:33;;;;;;;0.68;0.68;;;14.40;99.90;;;;;;1929074;73;21390;-80
2021/07/01 05:40:00;;;;;;;0.75;0.75;;;14.40;99.90;;;;;;1928879;74;21076;-80
2021/07/01 05:42:26;;;;;;;1.10;0.70;;;14.50;99.90;;;;;;1931150;73;21063;-79
2021/07/01 05:44:52;;;;;;;0.53;0.53;;;14.50;99.90;;;;;;1928875;74;21105;-79
2021/07/01 05:47:18;;;;;;;1.02;0.88;;;14.60;99.90;;;;;;1926880;73;21135;-76
2021/07/01 05:49:44;;;;;;;1.32;0.75;;;14.70;99.90;;;;;;1949370;72;21035;-79
2021/07/01 05:52:11;;;;;;;0.70;0.68;;;14.70;99.90;;;;;;1941568;73;21263;-79
2021/07/01 05:54:42;;;;;;;1.67;0.60;;;14.70;99.90;;;;;;1931206;74;21079;-79
2021/07/01 05:57:05;;;;;;;1.60;0.70;;;14.80;99.90;;;;;;1928249;74;21575;-78
2021/07/01 05:59:32;;;;;;;6.72;0.80;;;14.90;99.90;;;;;;1929030;74;21161;-78
2021/07/01 06:01:58;;;;;;;1.80;1.00;;;15.00;99.90;;;;;;1934004;73;21147;-80
2021/07/01 06:04:25;;;;;;;1.10;0.80;;;15.10;99.90;;;;;;1929277;74;21484;-77
2021/07/01 06:06:51;;;;;;;2.15;0.80;;;15.10;99.90;;;;;;1928984;73;21491;-79
2021/07/01 06:09:17;;;;;;;2.05;0.47;;;14.90;99.90;;;;;;1928675;74;21486;-79
2021/07/01 06:11:43;;;;;;;0.65;0.65;;;15.00;99.90;;;;;;1930466;74;21565;-79
2021/07/01 06:14:11;;;;;;;0.60;0.60;;;15.10;99.90;;;;;;1928810;74;21483;-80
2021/07/01 06:16:37;;;;;;;5.15;0.70;;;15.10;99.90;;;;;;1928762;74;21188;-80
2021/07/01 06:19:04;;;;;;;1.20;0.80;;;15.20;99.90;;;;;;1930467;73;21071;-80
2021/07/01 06:21:30;;;;;;;0.78;0.60;;;15.20;99.90;;;;;;1928951;74;21138;-79
2021/07/01 06:23:56;;;;;;;1.15;0.70;;;15.20;99.90;;;;;;1947482;73;21184;-79
2021/07/01 06:26:25;;;;;;;1.80;0.70;;;15.30;99.90;;;;;;1940322;73;21140;-78
2021/07/01 06:28:50;;;;;;;0.57;0.57;;;15.20;99.90;;;;;;1945774;72;21409;-79
2021/07/01 06:31:16;;;;;;;0.50;0.50;;;15.20;99.90;;;;;;1944076;72;21591;-79
2021/07/01 06:33:44;;;;;;;0.50;0.50;;;15.30;99.90;;;;;;1938896;73;21479;-78
2021/07/01 06:36:10;;;;;;;1.95;0.70;;;15.30;99.90;;;;;;1928771;74;21166;-79
2021/07/01 06:38:36;;;;;;;1.02;0.80;;;15.40;99.90;;;;;;1928891;74;21495;-79
2021/07/01 06:41:02;;;;;;;6.20;0.70;;;15.50;99.90;;;;;;1928947;74;21137;-78
2021/07/01 06:43:30;;;;;;;1.07;0.78;;;15.50;99.90;;;;;;1929326;74;21079;-79
2021/07/01 06:45:56;;;;;;;1.17;0.93;;;15.50;99.90;;;;;;1934362;73;21167;-78
2021/07/01 06:48:23;;;;;;;4.65;0.70;;;15.50;99.90;;;;;;1937564;73;21035;-79
2021/07/01 06:50:49;;;;;;;1.62;0.80;;;15.40;99.90;;;;;;1945982;73;21113;-79
2021/07/01 06:53:15;;;;;;;0.50;0.50;;;15.30;99.90;;;;;;1932454;72;21084;-78
2021/07/01 06:55:41;;;;;;;4.30;0.70;;;15.30;99.90;;;;;;1943771;73;21079;-79
2021/07/01 06:58:07;;;;;;;1.77;0.80;;;15.30;99.90;;;;;;1935031;73;21048;-79
2021/07/01 07:00:33;;;;;;;1.02;0.60;;;15.30;99.90;;;;;;1933496;73;21083;-75
2021/07/01 07:03:00;;;;;;;0.50;0.50;;;15.20;99.90;;;;;;1936198;73;21077;-79
2021/07/01 07:05:26;;;;;;;0.50;0.50;;;15.30;99.90;;;;;;1929109;74;21067;-80
2021/07/01 07:07:52;;;;;;;1.65;0.68;;;15.20;99.90;;;;;;1929114;74;21138;-77
2021/07/01 07:10:19;;;;;;;1.32;0.55;;;15.30;99.90;;;;;;1928889;74;21075;-80
2021/07/01 07:12:46;;;;;;;0.50;0.50;;;15.30;99.90;;;;;;1934198;74;21080;-79
2021/07/01 07:15:12;;;;;;;0.47;0.47;;;15.30;99.90;;;;;;1931276;73;21046;-79
2021/07/01 07:17:38;;;;;;;1.10;0.60;;;15.30;99.90;;;;;;1939089;73;21080;-79
2021/07/01 07:20:05;;;;;;;1.75;0.55;;;15.50;99.90;;;;;;1933949;74;21173;-80
2021/07/01 07:22:31;;;;;;;3.12;0.42;;;15.50;99.90;;;;;;1929011;74;21068;-78
2021/07/01 07:24:57;;;;;;;3.47;0.88;;;15.70;99.90;;;;;;1934768;73;21134;-79
2021/07/01 07:27:23;;;;;;;1.27;0.85;;;15.70;99.90;;;;;;1936485;73;21143;-79
2021/07/01 07:29:49;;;;;;;1.05;0.65;;;15.50;99.90;;;;;;1930377;73;21137;-79
2021/07/01 07:32:15;;;;;;;0.88;0.70;;;15.60;99.90;;;;;;1929565;73;21139;-78
2021/07/01 07:34:41;;;;;;;8.58;0.82;;;15.60;99.90;;;;;;1936491;73;21087;-79
2021/07/01 07:37:07;;;;;;;0.85;0.72;;;15.60;99.90;;;;;;1928758;74;21091;-78
2021/07/01 07:39:34;;;;;;;2.05;0.60;;;15.60;99.90;;;;;;1933617;73;21488;-79
2021/07/01 07:42:00;;;;;;;0.65;0.65;;;15.70;99.90;;;;;;1941900;72;21156;-78
2021/07/01 07:44:26;;;;;;;1.82;0.95;;;15.60;99.90;;;;;;1949272;72;21114;-78
2021/07/01 07:46:52;;;;;;;0.88;0.80;;;15.80;99.90;;;;;;1930969;72;21121;-77
2021/07/01 07:49:19;;;;;;;0.78;0.57;;;16.00;99.90;;;;;;1930993;74;21114;-77
2021/07/01 07:51:45;;;;;;;8.25;1.15;;;16.20;99.90;;;;;;1928842;74;21503;-77
2021/07/01 07:54:11;;;;;;;1.37;0.70;;;16.30;99.90;;;;;;1928829;74;21499;-77
2021/07/01 07:56:38;;;;;;;1.00;0.85;;;16.40;99.90;;;;;;1944920;73;21497;-76
2021/07/01 07:59:04;;;;;;;0.78;0.70;;;16.60;99.90;;;;;;1933861;73;21072;-77
2021/07/01 08:01:32;;;;;;;1.47;0.60;;;16.80;99.90;;;;;;1930998;74;21045;-77
2021/07/01 08:03:58;;;;;;;8.58;1.67;;;17.10;99.90;;;;;;1931279;74;21489;-77
2021/07/01 08:06:24;;;;;;;0.75;0.75;;;17.20;99.90;;;;;;1928929;74;21489;-77
2021/07/01 08:08:50;;;;;;;1.25;1.07;;;17.10;99.90;;;;;;1929091;74;21075;-77
2021/07/01 08:11:16;;;;;;;2.45;1.10;;;17.00;99.90;;;;;;1928961;74;21072;-78
2021/07/01 08:13:42;;;;;;;1.50;0.88;;;16.90;99.90;;;;;;1928893;74;21029;-77
2021/07/01 08:16:08;;;;;;;0.90;0.90;;;17.00;99.90;;;;;;1929646;74;21129;-77
2021/07/01 08:18:40;;;;;;;0.85;0.80;;;17.20;99.90;;;;;;1931082;74;21161;-76
2021/07/01 08:21:07;;;;;;;0.98;0.85;;;17.30;99.90;;;;;;1929407;74;21185;-76
2021/07/01 08:23:33;;;;;;;1.62;0.95;;;17.10;99.90;;;;;;1930022;73;21064;-76
2021/07/01 08:26:01;;;;;;;7.75;0.90;;;17.20;99.90;;;;;;1929033;74;21068;-76
2021/07/01 08:28:27;;;;;;;0.80;0.80;;;17.20;99.90;;;;;;1928945;73;21193;-76
2021/07/01 08:30:54;;;;;;;1.50;0.95;;;17.20;99.90;;;;;;1928461;74;21075;-76
2021/07/01 08:33:20;;;;;;;1.12;1.10;;;17.10;99.90;;;;;;1928924;74;21071;-76
2021/07/01 08:35:46;;;;;;;4.70;1.10;;;17.10;99.90;;;;;;1930747;74;21111;-76
2021/07/01 08:38:13;;;;;;;1.02;0.93;;;17.30;99.90;;;;;;1931035;74;21154;-76
2021/07/01 08:40:39;;;;;;;0.90;0.80;;;17.20;99.90;;;;;;1928875;74;21063;-76
2021/07/01 08:43:05;;;;;;;4.12;0.90;;;17.30;99.90;;;;;;1929004;74;21087;-76
2021/07/01 08:45:31;;;;;;;1.02;0.93;;;17.50;99.90;;;;;;1929071;74;21072;-76
2021/07/01 08:47:57;;;;;;;1.95;1.05;;;17.50;99.90;;;;;;1928664;74;21080;-76
2021/07/01 08:50:24;;;;;;;1.52;1.02;;;17.60;99.90;;;;;;1933935;74;21079;-77
2021/07/01 08:52:50;;;;;;;2.65;0.80;;;17.60;99.90;;;;;;1929008;74;21149;-76
2021/07/01 08:55:16;;;;;;;0.88;0.88;;;17.50;99.90;;;;;;1929029;74;21087;-76
2021/07/01 08:57:42;;;;;;;1.10;1.00;;;17.50;99.90;;;;;;1928845;73;21040;-76
2021/07/01 09:00:09;;;;;;;2.10;1.35;;;17.30;99.90;;;;;;1929123;74;21075;-76
2021/07/01 09:02:35;;;;;;;2.20;1.20;;;17.20;99.90;;;;;;1931365;73;21061;-77
2021/07/01 09:05:02;;;;;;;2.08;1.07;;;17.20;99.90;;;;;;1928951;74;21137;-77
2021/07/01 09:07:28;;;;;;;1.20;1.10;;;17.10;99.90;;;;;;1929037;74;21088;-77
2021/07/01 09:09:54;;;;;;;1.07;0.85;;;17.10;99.90;;;;;;1928534;74;21478;-78
2021/07/01 09:12:21;;;;;;;1.42;1.10;;;16.90;99.90;;;;;;1930773;74;21056;-78
2021/07/01 09:14:47;;;;;;;1.90;1.15;;;16.80;99.90;;;;;;1928889;74;21071;-76
2021/07/01 09:17:13;;;;;;;2.17;1.12;;;16.90;99.90;;;;;;1928960;74;21064;-75
2021/07/01 09:19:39;;;;;;;2.10;1.05;;;16.80;99.90;;;;;;1929532;74;21076;-79
2021/07/01 09:22:10;;;;;;;3.30;1.22;;;16.90;99.90;;;;;;1929179;74;21036;-78
2021/07/01 09:24:33;;;;;;;7.83;1.98;;;16.90;99.90;;;;;;1930601;74;21149;-78
2021/07/01 09:26:59;;;;;;;3.60;1.30;;;16.70;99.90;;;;;;1929031;74;21170;-78
2021/07/01 09:29:25;;;;;;;1.85;1.20;;;16.70;99.90;;;;;;1929275;74;21133;-79
2021/07/01 09:31:51;;;;;;;2.52;1.32;;;16.80;99.90;;;;;;1928969;74;21079;-79
2021/07/01 09:34:17;;;;;;;1.50;1.27;;;16.90;99.90;;;;;;1929024;74;21087;-76
2021/07/01 09:36:44;;;;;;;1.00;1.00;;;17.00;99.90;;;;;;1956988;73;21080;-78
2021/07/01 09:39:10;;;;;;;4.53;1.00;;;17.10;99.90;;;;;;1938807;73;21095;-77
2021/07/01 09:41:37;;;;;;;2.42;1.42;;;17.20;99.90;;;;;;1928773;74;21127;-79
2021/07/01 09:44:03;;;;;;;2.02;1.20;;;17.10;99.90;;;;;;1928157;74;21041;-79
2021/07/01 09:46:30;;;;;;;2.08;0.88;;;17.00;99.90;;;;;;1929976;74;21080;-79
2021/07/01 09:48:57;;;;;;;3.10;1.00;;;16.90;99.90;;;;;;1928791;74;21126;-79
2021/07/01 09:51:23;;;;;;;4.47;1.40;;;17.00;99.90;;;;;;1937866;73;21083;-78
2021/07/01 09:53:49;;;;;;;1.20;1.15;;;17.00;99.90;;;;;;1943764;72;21196;-78
2021/07/01 09:56:15;;;;;;;1.40;1.25;;;16.80;99.90;;;;;;1934171;73;21149;-79
2021/07/01 09:58:41;;;;;;;2.62;1.32;;;16.80;99.90;;;;;;1932957;74;21071;-79
2021/07/01 10:01:07;;;;;;;1.80;1.00;;;16.90;99.90;;;;;;1934123;73;21079;-79
2021/07/01 10:03:34;;;;;;;2.12;0.93;;;16.80;99.90;;;;;;1929050;74;21079;-79
2021/07/01 10:06:00;;;;;;;1.98;1.42;;;17.00;99.90;;;;;;1933774;74;21073;-79
2021/07/01 10:08:26;;;;;;;1.82;1.35;;;17.10;99.90;;;;;;1931789;74;21589;-79
2021/07/01 10:10:52;;;;;;;1.37;1.15;;;17.20;99.90;;;;;;1930950;74;21556;-78
2021/07/01 10:13:19;;;;;;;1.87;1.12;;;17.20;99.90;;;;;;1928241;74;21141;-78
2021/07/01 10:15:46;;;;;;;1.22;1.12;;;17.20;99.90;;;;;;1929080;74;21152;-77
2021/07/01 10:18:13;;;;;;;1.10;1.10;;;17.30;99.90;;;;;;1931074;74;21083;-78
2021/07/01 10:20:39;;;;;;;1.12;0.95;;;17.30;99.90;;;;;;1929018;74;21033;-78
2021/07/01 10:23:05;;;;;;;1.77;1.15;;;17.30;99.90;;;;;;1930502;74;21072;-77
2021/07/01 10:25:31;;;;;;;2.05;1.40;;;17.40;99.90;;;;;;1929094;74;21152;-78
2021/07/01 10:27:58;;;;;;;1.40;1.30;;;17.40;99.90;;;;;;1930755;74;21123;-78
2021/07/01 10:30:24;;;;;;;2.90;1.35;;;17.20;99.90;;;;;;1928870;74;21499;-79
2021/07/01 10:32:50;;;;;;;2.30;1.10;;;17.10;99.90;;;;;;1928916;74;21032;-78
2021/07/01 10:35:16;;;;;;;6.87;1.30;;;17.20;99.90;;;;;;1928956;74;21137;-79
2021/07/01 10:37:42;;;;;;;2.83;1.20;;;17.20;99.90;;;;;;1929038;74;21129;-78
2021/07/01 10:40:08;;;;;;;2.10;1.00;;;17.10;99.90;;;;;;1929216;74;21137;-79
2021/07/01 10:42:34;;;;;;;4.08;1.32;;;17.20;99.90;;;;;;1929015;74;21045;-78
2021/07/01 10:45:01;;;;;;;2.90;1.32;;;17.30;99.90;;;;;;1930965;74;21075;-79
2021/07/01 10:47:27;;;;;;;2.52;1.20;;;17.40;99.90;;;;;;1931118;74;21153;-79
2021/07/01 10:49:53;;;;;;;1.05;1.02;;;17.20;99.90;;;;;;1929060;74;21040;-78
2021/07/01 10:52:19;;;;;;;1.45;1.10;;;17.10;99.90;;;;;;1928785;74;21045;-79
2021/07/01 10:54:45;;;;;;;1.05;0.95;;;17.10;99.90;;;;;;1928876;74;21060;-79
2021/07/01 10:57:11;;;;;;;3.17;1.35;;;17.30;99.90;;;;;;1928863;74;21067;-79
2021/07/01 10:59:37;;;;;;;4.10;1.12;;;17.30;99.90;;;;;;1928379;74;21128;-79
2021/07/01 11:02:03;;;;;;;0.90;0.90;;;17.30;99.90;;;;;;1928835;74;21040;-79
2021/07/01 11:04:30;;;;;;;3.35;0.80;;;17.30;99.90;;;;;;1929027;74;21087;-79
2021/07/01 11:06:56;;;;;;;0.70;0.70;;;17.30;99.90;;;;;;1928917;74;21121;-79
2021/07/01 11:09:22;;;;;;;1.00;0.70;;;17.20;99.90;;;;;;1928938;74;21507;-79
2021/07/01 11:11:48;;;;;;;1.37;0.62;;;17.20;99.90;;;;;;1928812;74;21437;-78
2021/07/01 11:14:14;;;;;;;1.52;0.70;;;17.20;99.90;;;;;;1933663;74;21553;-79
2021/07/01 11:16:44;;;;;;;1.05;0.90;;;17.10;99.90;;;;;;1929087;74;21533;-78
2021/07/01 11:19:08;;;;;;;1.85;1.00;;;16.70;99.90;;;;;;1928716;74;21244;-78
2021/07/01 11:21:34;;;;;;;1.57;0.75;;;16.50;99.90;;;;;;1928828;74;21048;-77
2021/07/01 11:24:00;;;;;;;1.07;0.80;;;16.40;99.90;;;;;;1928984;74;21063;-78
2021/07/01 11:26:26;;;;;;;9.28;1.00;;;16.20;99.90;;;;;;1929914;74;21149;-79
2021/07/01 11:28:53;;;;;;;1.07;0.88;;;16.10;99.90;;;;;;1929107;74;21077;-77
2021/07/01 11:31:19;;;;;;;0.95;0.80;;;16.00;99.90;;;;;;1933632;74;21129;-78
2021/07/01 11:33:45;;;;;;;2.72;1.10;;;15.90;99.90;;;;;;1933489;74;21144;-78
2021/07/01 11:36:11;;;;;;;1.10;0.80;;;15.90;99.90;;;;;;1929032;74;21064;-80
2021/07/01 11:38:37;;;;;;;3.25;1.65;;;15.80;99.90;;;;;;1934007;74;21176;-77
2021/07/01 11:41:04;;;;;;;1.50;1.10;;;15.90;99.90;;;;;;1930197;74;21149;-78
2021/07/01 11:43:30;;;;;;;0.75;0.75;;;15.90;99.90;;;;;;1934104;72;21111;-79
2021/07/01 11:45:56;;;;;;;2.12;0.85;;;16.00;99.90;;;;;;1931463;73;21116;-77
2021/07/01 11:48:22;;;;;;;0.95;0.85;;;15.90;99.90;;;;;;1929307;74;21071;-79
2021/07/01 11:50:49;;;;;;;0.80;0.80;;;15.90;99.90;;;;;;1929211;74;21072;-79
2021/07/01 11:53:15;;;;;;;1.00;0.90;;;16.00;99.90;;;;;;1932381;74;21090;-77
2021/07/01 11:55:41;;;;;;;1.27;1.17;;;15.90;99.90;;;;;;1930895;74;21060;-79
2021/07/01 11:58:09;;;;;;;1.87;1.20;;;15.90;99.90;;;;;;1931061;74;21091;-79
2021/07/01 12:00:35;;;;;;;0.70;0.70;;;16.00;99.90;;;;;;1929229;74;21071;-79
2021/07/01 12:03:02;;;;;;;2.87;1.17;;;16.20;99.90;;;;;;1935658;74;21071;-80
2021/07/01 12:05:28;;;;;;;1.20;0.93;;;16.30;99.90;;;;;;1929022;74;21588;-80
2021/07/01 12:07:54;;;;;;;1.07;1.07;;;16.40;99.90;;;;;;1930240;74;21565;-80
2021/07/01 12:10:20;;;;;;;1.17;1.07;;;16.50;99.90;;;;;;1929084;74;21490;-80
2021/07/01 12:12:47;;;;;;;1.37;1.17;;;16.40;99.90;;;;;;1928626;74;21468;-79
2021/07/01 12:15:13;;;;;;;1.25;1.15;;;16.50;99.90;;;;;;1931078;74;21149;-78
2021/07/01 12:17:39;;;;;;;1.45;1.15;;;16.40;99.90;;;;;;1930911;74;21161;-79
2021/07/01 12:20:05;;;;;;;1.67;1.25;;;16.20;99.90;;;;;;1928851;74;21037;-79
2021/07/01 12:22:31;;;;;;;3.50;1.25;;;16.20;99.90;;;;;;1928827;74;21149;-79
2021/07/01 12:24:57;;;;;;;4.72;1.65;;;16.10;99.90;;;;;;1928775;74;21189;-75
2021/07/01 12:27:23;;;;;;;3.15;1.60;;;16.20;99.90;;;;;;1942523;73;21071;-78
2021/07/01 12:29:50;;;;;;;0.82;0.82;;;16.30;99.90;;;;;;1929445;74;21048;-80
2021/07/01 12:32:16;;;;;;;1.47;1.25;;;16.30;99.90;;;;;;1929300;74;21067;-80
2021/07/01 12:34:42;;;;;;;1.75;1.17;;;16.40;99.90;;;;;;1929484;74;21071;-80
2021/07/01 12:37:08;;;;;;;2.87;1.17;;;16.40;99.90;;;;;;1931311;73;21171;-80
2021/07/01 12:39:34;;;;;;;1.85;1.15;;;16.60;99.90;;;;;;1942810;73;21025;-81
2021/07/01 12:42:00;;;;;;;2.05;1.72;;;16.60;99.90;;;;;;1928665;74;21076;-80